sensor_id;sensor_type;location;lat;lon;timestamp;pressure;altitude;pressure_sealevel;temperature;humidity
81802;BME280;71199;52.490;5.448;2023-07-29T00:00:32;100842.75;;;15.85;91.88
81802;BME280;71199;52.490;5.448;2023-07-29T00:02:57;100840.22;;;15.84;91.89
81802;BME280;71199;52.490;5.448;2023-07-29T00:05:23;100841.91;;;15.85;91.75
81802;BME280;71199;52.490;5.448;2023-07-29T00:07:48;100838.50;;;15.89;91.34
81802;BME280;71199;52.490;5.448;2023-07-29T00:10:13;100828.06;;;15.91;90.81
81802;BME280;71199;52.490;5.448;2023-07-29T00:12:39;100832.13;;;15.89;91.13
81802;BME280;71199;52.490;5.448;2023-07-29T00:15:05;100823.38;;;15.85;90.94
81802;BME280;71199;52.490;5.448;2023-07-29T00:17:30;100819.09;;;15.83;90.66
81802;BME280;71199;52.490;5.448;2023-07-29T00:19:55;100815.69;;;15.81;90.44
81802;BME280;71199;52.490;5.448;2023-07-29T00:22:21;100807.81;;;15.78;90.42
81802;BME280;71199;52.490;5.448;2023-07-29T00:24:54;100808.00;;;15.76;90.27
81802;BME280;71199;52.490;5.448;2023-07-29T00:27:25;100806.09;;;15.77;90.06
81802;BME280;71199;52.490;5.448;2023-07-29T00:29:51;100809.09;;;15.82;89.93
81802;BME280;71199;52.490;5.448;2023-07-29T00:32:16;100814.66;;;15.88;89.33
81802;BME280;71199;52.490;5.448;2023-07-29T00:34:41;100806.34;;;15.95;88.99
81802;BME280;71199;52.490;5.448;2023-07-29T00:37:07;100818.31;;;16.02;88.54
81802;BME280;71199;52.490;5.448;2023-07-29T00:39:33;100801.69;;;16.09;87.80
81802;BME280;71199;52.490;5.448;2023-07-29T00:41:58;100797.84;;;16.10;87.70
81802;BME280;71199;52.490;5.448;2023-07-29T00:44:24;100796.16;;;16.09;88.00
81802;BME280;71199;52.490;5.448;2023-07-29T00:46:53;100795.69;;;16.05;87.81
81802;BME280;71199;52.490;5.448;2023-07-29T00:49:19;100797.84;;;16.03;87.87
81802;BME280;71199;52.490;5.448;2023-07-29T00:51:44;100794.84;;;16.05;87.92
81802;BME280;71199;52.490;5.448;2023-07-29T00:54:10;100788.66;;;16.09;87.70
81802;BME280;71199;52.490;5.448;2023-07-29T00:56:36;100786.78;;;16.17;86.90
81802;BME280;71199;52.490;5.448;2023-07-29T00:59:02;100783.56;;;16.20;86.77
81802;BME280;71199;52.490;5.448;2023-07-29T01:01:28;100780.59;;;16.28;85.66
81802;BME280;71199;52.490;5.448;2023-07-29T01:03:54;100779.09;;;16.32;86.15
81802;BME280;71199;52.490;5.448;2023-07-29T01:09:04;100781.66;;;16.34;86.09
81802;BME280;71199;52.490;5.448;2023-07-29T01:16:42;100764.16;;;16.46;84.98
81802;BME280;71199;52.490;5.448;2023-07-29T01:19:42;100756.69;;;16.47;85.08
81802;BME280;71199;52.490;5.448;2023-07-29T01:22:04;100757.56;;;16.47;85.02
81802;BME280;71199;52.490;5.448;2023-07-29T01:24:31;100762.03;;;16.48;84.93
81802;BME280;71199;52.490;5.448;2023-07-29T01:26:56;100759.03;;;16.50;84.88
81802;BME280;71199;52.490;5.448;2023-07-29T01:29:21;100765.66;;;16.49;85.05
81802;BME280;71199;52.490;5.448;2023-07-29T01:31:49;100758.19;;;16.49;84.47
81802;BME280;71199;52.490;5.448;2023-07-29T01:34:24;100754.34;;;16.50;84.80
81802;BME280;71199;52.490;5.448;2023-07-29T01:36:54;100760.53;;;16.52;84.65
81802;BME280;71199;52.490;5.448;2023-07-29T01:39:20;100756.91;;;16.52;84.66
81802;BME280;71199;52.490;5.448;2023-07-29T01:41:48;100755.19;;;16.51;84.67
81802;BME280;71199;52.490;5.448;2023-07-29T01:44:13;100752.41;;;16.51;84.33
81802;BME280;71199;52.490;5.448;2023-07-29T01:46:39;100759.03;;;16.57;83.79
81802;BME280;71199;52.490;5.448;2023-07-29T01:49:05;100753.91;;;16.60;83.84
81802;BME280;71199;52.490;5.448;2023-07-29T01:51:30;100764.81;;;16.62;83.60
81802;BME280;71199;52.490;5.448;2023-07-29T01:53:55;100756.91;;;16.59;83.76
81802;BME280;71199;52.490;5.448;2023-07-29T01:56:21;100757.31;;;16.62;83.74
81802;BME280;71199;52.490;5.448;2023-07-29T01:58:46;100760.53;;;16.66;83.37
81802;BME280;71199;52.490;5.448;2023-07-29T02:01:12;100761.16;;;16.68;83.10
81802;BME280;71199;52.490;5.448;2023-07-29T02:03:38;100765.00;;;16.67;82.94
81802;BME280;71199;52.490;5.448;2023-07-29T02:06:03;100763.50;;;16.64;82.86
81802;BME280;71199;52.490;5.448;2023-07-29T02:08:28;100746.44;;;16.61;83.13
81802;BME280;71199;52.490;5.448;2023-07-29T02:10:54;100750.06;;;16.61;82.91
81802;BME280;71199;52.490;5.448;2023-07-29T02:13:19;100754.31;;;16.57;82.86
81802;BME280;71199;52.490;5.448;2023-07-29T02:15:44;100750.06;;;16.55;82.94
81802;BME280;71199;52.490;5.448;2023-07-29T02:18:10;100753.69;;;16.55;82.85
81802;BME280;71199;52.490;5.448;2023-07-29T02:20:35;100746.66;;;16.52;83.27
81802;BME280;71199;52.490;5.448;2023-07-29T02:23:01;100750.28;;;16.53;82.91
81802;BME280;71199;52.490;5.448;2023-07-29T02:25:26;100746.44;;;16.54;83.27
81802;BME280;71199;52.490;5.448;2023-07-29T02:27:51;100748.13;;;16.55;82.66
81802;BME280;71199;52.490;5.448;2023-07-29T02:30:17;100744.31;;;16.56;82.66
81802;BME280;71199;52.490;5.448;2023-07-29T02:32:42;100742.38;;;16.57;82.16
81802;BME280;71199;52.490;5.448;2023-07-29T02:35:08;100748.38;;;16.54;82.33
81802;BME280;71199;52.490;5.448;2023-07-29T02:37:33;100752.41;;;16.51;82.40
81802;BME280;71199;52.490;5.448;2023-07-29T02:39:58;100746.03;;;16.50;82.59
81802;BME280;71199;52.490;5.448;2023-07-29T02:42:24;100746.66;;;16.52;82.35
81802;BME280;71199;52.490;5.448;2023-07-29T02:44:49;100746.66;;;16.46;82.44
81802;BME280;71199;52.490;5.448;2023-07-29T02:47:14;100749.00;;;16.49;82.46
81802;BME280;71199;52.490;5.448;2023-07-29T02:49:40;100746.22;;;16.49;82.67
81802;BME280;71199;52.490;5.448;2023-07-29T02:52:05;100744.09;;;16.44;82.95
81802;BME280;71199;52.490;5.448;2023-07-29T02:54:31;100728.97;;;16.34;83.46
81802;BME280;71199;52.490;5.448;2023-07-29T02:56:56;100724.94;;;16.23;83.96
81802;BME280;71199;52.490;5.448;2023-07-29T02:59:21;100736.44;;;16.13;84.85
81802;BME280;71199;52.490;5.448;2023-07-29T03:01:47;100736.44;;;16.06;85.07
81802;BME280;71199;52.490;5.448;2023-07-29T03:04:12;100746.25;;;16.09;84.91
81802;BME280;71199;52.490;5.448;2023-07-29T03:06:40;100737.31;;;16.00;85.30
81802;BME280;71199;52.490;5.448;2023-07-29T03:09:05;100741.13;;;15.99;85.56
81802;BME280;71199;52.490;5.448;2023-07-29T03:11:31;100736.84;;;15.97;85.65
81802;BME280;71199;52.490;5.448;2023-07-29T03:13:56;100726.41;;;15.92;85.89
81802;BME280;71199;52.490;5.448;2023-07-29T03:16:22;100730.44;;;15.89;85.96
81802;BME280;71199;52.490;5.448;2023-07-29T03:18:48;100734.72;;;15.92;86.17
81802;BME280;71199;52.490;5.448;2023-07-29T03:21:14;100729.41;;;15.84;86.52
81802;BME280;71199;52.490;5.448;2023-07-29T03:23:39;100727.66;;;15.83;86.63
81802;BME280;71199;52.490;5.448;2023-07-29T03:26:05;100727.22;;;15.79;86.85
81802;BME280;71199;52.490;5.448;2023-07-29T03:28:41;100712.53;;;15.72;87.37
81802;BME280;71199;52.490;5.448;2023-07-29T03:31:07;100718.88;;;15.66;87.58
81802;BME280;71199;52.490;5.448;2023-07-29T03:33:33;100715.25;;;15.59;87.93
81802;BME280;71199;52.490;5.448;2023-07-29T03:35:58;100711.84;;;15.57;87.97
81802;BME280;71199;52.490;5.448;2023-07-29T03:38:24;100702.66;;;15.56;88.21
81802;BME280;71199;52.490;5.448;2023-07-29T03:40:50;100703.09;;;15.53;88.49
81802;BME280;71199;52.490;5.448;2023-07-29T03:43:16;100707.78;;;15.52;88.58
81802;BME280;71199;52.490;5.448;2023-07-29T03:45:41;100706.69;;;15.47;89.23
81802;BME280;71199;52.490;5.448;2023-07-29T03:48:07;100712.03;;;15.48;88.93
81802;BME280;71199;52.490;5.448;2023-07-29T03:50:34;100707.97;;;15.44;89.40
81802;BME280;71199;52.490;5.448;2023-07-29T03:53:05;100711.59;;;15.45;89.23
81802;BME280;71199;52.490;5.448;2023-07-29T03:55:31;100700.91;;;15.42;89.59
81802;BME280;71199;52.490;5.448;2023-07-29T03:58:00;100699.63;;;15.38;89.81
81802;BME280;71199;52.490;5.448;2023-07-29T04:00:26;100699.44;;;15.39;89.75
81802;BME280;71199;52.490;5.448;2023-07-29T04:02:52;100696.66;;;15.39;89.98
81802;BME280;71199;52.490;5.448;2023-07-29T04:05:17;100697.50;;;15.40;89.92
81802;BME280;71199;52.490;5.448;2023-07-29T04:07:43;100701.16;;;15.40;90.08
81802;BME280;71199;52.490;5.448;2023-07-29T04:10:09;100702.00;;;15.41;89.98
81802;BME280;71199;52.490;5.448;2023-07-29T04:12:34;100700.06;;;15.41;90.02
81802;BME280;71199;52.490;5.448;2023-07-29T04:14:59;100716.94;;;15.46;89.82
81802;BME280;71199;52.490;5.448;2023-07-29T04:17:25;100710.31;;;15.47;89.93
81802;BME280;71199;52.490;5.448;2023-07-29T04:19:50;100725.69;;;15.57;88.77
81802;BME280;71199;52.490;5.448;2023-07-29T04:22:16;100735.06;;;15.62;89.19
81802;BME280;71199;52.490;5.448;2023-07-29T04:24:41;100722.28;;;15.68;88.53
81802;BME280;71199;52.490;5.448;2023-07-29T04:27:07;100727.84;;;15.68;88.40
81802;BME280;71199;52.490;5.448;2023-07-29T04:29:32;100726.38;;;15.72;88.30
81802;BME280;71199;52.490;5.448;2023-07-29T04:31:58;100723.41;;;15.80;88.03
81802;BME280;71199;52.490;5.448;2023-07-29T04:34:23;100734.09;;;15.90;87.42
81802;BME280;71199;52.490;5.448;2023-07-29T04:36:48;100729.59;;;15.96;87.55
81802;BME280;71199;52.490;5.448;2023-07-29T04:39:14;100716.63;;;16.03;86.85
81802;BME280;71199;52.490;5.448;2023-07-29T04:41:39;100717.69;;;16.08;86.60
81802;BME280;71199;52.490;5.448;2023-07-29T04:44:05;100723.88;;;16.10;86.48
81802;BME280;71199;52.490;5.448;2023-07-29T04:46:30;100717.69;;;16.08;86.61
81802;BME280;71199;52.490;5.448;2023-07-29T04:48:56;100732.19;;;16.17;86.02
81802;BME280;71199;52.490;5.448;2023-07-29T04:51:22;100739.84;;;16.22;86.15
81802;BME280;71199;52.490;5.448;2023-07-29T04:53:47;100732.59;;;16.27;85.83
81802;BME280;71199;52.490;5.448;2023-07-29T04:56:13;100725.56;;;16.31;85.65
81802;BME280;71199;52.490;5.448;2023-07-29T04:58:38;100725.56;;;16.31;85.48
81802;BME280;71199;52.490;5.448;2023-07-29T05:01:04;100719.81;;;16.33;85.84
81802;BME280;71199;52.490;5.448;2023-07-29T05:03:29;100724.28;;;16.34;85.56
81802;BME280;71199;52.490;5.448;2023-07-29T05:05:56;100720.22;;;16.37;85.56
81802;BME280;71199;52.490;5.448;2023-07-29T05:08:22;100719.81;;;16.33;85.69
81802;BME280;71199;52.490;5.448;2023-07-29T05:10:51;100724.47;;;16.32;85.73
81802;BME280;71199;52.490;5.448;2023-07-29T05:13:17;100721.94;;;16.31;86.05
81802;BME280;71199;52.490;5.448;2023-07-29T05:15:43;100726.84;;;16.29;85.77
81802;BME280;71199;52.490;5.448;2023-07-29T05:18:08;100719.59;;;16.28;86.17
81802;BME280;71199;52.490;5.448;2023-07-29T05:20:34;100720.03;;;16.31;85.99
81802;BME280;71199;52.490;5.448;2023-07-29T05:22:59;100728.75;;;16.42;85.63
81802;BME280;71199;52.490;5.448;2023-07-29T05:25:26;100730.88;;;16.53;85.28
81802;BME280;71199;52.490;5.448;2023-07-29T05:27:51;100729.56;;;16.69;84.82
81802;BME280;71199;52.490;5.448;2023-07-29T05:30:16;100731.41;;;17.08;83.24
81802;BME280;71199;52.490;5.448;2023-07-29T05:32:42;100730.84;;;17.38;81.87
81802;BME280;71199;52.490;5.448;2023-07-29T05:35:07;100725.22;;;17.51;80.93
81802;BME280;71199;52.490;5.448;2023-07-29T05:37:33;100719.81;;;17.63;80.51
81802;BME280;71199;52.490;5.448;2023-07-29T05:39:58;100729.19;;;17.69;80.16
81802;BME280;71199;52.490;5.448;2023-07-29T05:42:24;100728.31;;;17.68;80.03
81802;BME280;71199;52.490;5.448;2023-07-29T05:44:49;100738.59;;;17.68;80.05
81802;BME280;71199;52.490;5.448;2023-07-29T05:47:15;100735.09;;;17.79;79.52
81802;BME280;71199;52.490;5.448;2023-07-29T05:49:40;100729.78;;;17.78;79.72
81802;BME280;71199;52.490;5.448;2023-07-29T05:52:06;100730.84;;;17.83;79.59
81802;BME280;71199;52.490;5.448;2023-07-29T05:54:31;100738.22;;;17.96;78.99
81802;BME280;71199;52.490;5.448;2023-07-29T05:56:57;100740.00;;;18.16;78.22
81802;BME280;71199;52.490;5.448;2023-07-29T05:59:22;100739.09;;;18.22;78.31
81802;BME280;71199;52.490;5.448;2023-07-29T06:01:47;100737.63;;;18.19;77.98
81802;BME280;71199;52.490;5.448;2023-07-29T06:04:13;100747.91;;;18.19;78.14
81802;BME280;71199;52.490;5.448;2023-07-29T06:06:38;100740.41;;;18.19;78.24
81802;BME280;71199;52.490;5.448;2023-07-29T06:09:04;100740.00;;;18.16;78.31
81802;BME280;71199;52.490;5.448;2023-07-29T06:11:29;100736.22;;;18.03;78.73
81802;BME280;71199;52.490;5.448;2023-07-29T06:13:55;100747.88;;;17.94;78.98
81802;BME280;71199;52.490;5.448;2023-07-29T06:16:20;100737.25;;;17.84;79.67
81802;BME280;71199;52.490;5.448;2023-07-29T06:18:45;100743.44;;;17.79;80.01
81802;BME280;71199;52.490;5.448;2023-07-29T06:21:11;100739.56;;;17.80;79.71
81802;BME280;71199;52.490;5.448;2023-07-29T06:23:42;100751.72;;;17.92;79.99
81802;BME280;71199;52.490;5.448;2023-07-29T06:26:07;100743.59;;;18.23;78.49
81802;BME280;71199;52.490;5.448;2023-07-29T06:28:33;100738.16;;;18.53;77.59
81802;BME280;71199;52.490;5.448;2023-07-29T06:30:58;100734.84;;;18.88;76.17
81802;BME280;71199;52.490;5.448;2023-07-29T06:33:23;100730.38;;;19.54;74.22
81802;BME280;71199;52.490;5.448;2023-07-29T06:35:49;100737.84;;;20.02;72.21
81802;BME280;71199;52.490;5.448;2023-07-29T06:38:14;100752.16;;;20.06;72.07
81802;BME280;71199;52.490;5.448;2023-07-29T06:40:39;100745.78;;;19.87;72.05
81802;BME280;71199;52.490;5.448;2023-07-29T06:43:05;100750.81;;;19.66;73.20
81802;BME280;71199;52.490;5.448;2023-07-29T06:45:30;100748.78;;;19.55;73.73
81802;BME280;71199;52.490;5.448;2023-07-29T06:47:55;100753.47;;;19.43;73.85
81802;BME280;71199;52.490;5.448;2023-07-29T06:50:21;100752.09;;;19.33;74.29
81802;BME280;71199;52.490;5.448;2023-07-29T06:52:46;100748.91;;;19.30;74.76
81802;BME280;71199;52.490;5.448;2023-07-29T06:55:12;100746.22;;;19.23;74.70
81802;BME280;71199;52.490;5.448;2023-07-29T06:57:37;100739.31;;;19.26;74.70
81802;BME280;71199;52.490;5.448;2023-07-29T07:00:03;100747.75;;;19.38;74.97
81802;BME280;71199;52.490;5.448;2023-07-29T07:02:29;100748.34;;;19.58;74.41
81802;BME280;71199;52.490;5.448;2023-07-29T07:04:54;100749.25;;;19.70;73.37
81802;BME280;71199;52.490;5.448;2023-07-29T07:07:19;100755.91;;;20.00;72.42
81802;BME280;71199;52.490;5.448;2023-07-29T07:09:45;100755.47;;;20.15;72.54
81802;BME280;71199;52.490;5.448;2023-07-29T07:12:10;100750.50;;;20.40;71.80
81802;BME280;71199;52.490;5.448;2023-07-29T07:14:36;100757.31;;;20.56;71.01
81802;BME280;71199;52.490;5.448;2023-07-29T07:17:02;100762.06;;;20.56;70.39
81802;BME280;71199;52.490;5.448;2023-07-29T07:19:27;100762.19;;;20.37;71.24
81802;BME280;71199;52.490;5.448;2023-07-29T07:21:53;100760.66;;;20.11;71.59
81802;BME280;71199;52.490;5.448;2023-07-29T07:24:18;100758.78;;;19.93;72.46
81802;BME280;71199;52.490;5.448;2023-07-29T07:26:43;100764.19;;;19.76;73.02
81802;BME280;71199;52.490;5.448;2023-07-29T07:29:09;100752.72;;;19.66;73.54
81802;BME280;71199;52.490;5.448;2023-07-29T07:31:34;100768.97;;;19.69;73.70
81802;BME280;71199;52.490;5.448;2023-07-29T07:34:00;100756.19;;;19.80;73.43
81802;BME280;71199;52.490;5.448;2023-07-29T07:36:27;100765.47;;;19.92;72.88
81802;BME280;71199;52.490;5.448;2023-07-29T07:38:52;100762.72;;;20.04;72.43
81802;BME280;71199;52.490;5.448;2023-07-29T07:41:18;100769.94;;;19.93;71.69
81802;BME280;71199;52.490;5.448;2023-07-29T07:43:43;100769.53;;;19.78;73.03
81802;BME280;71199;52.490;5.448;2023-07-29T07:46:08;100773.25;;;20.02;73.60
81802;BME280;71199;52.490;5.448;2023-07-29T07:48:34;100764.44;;;20.17;72.21
81802;BME280;71199;52.490;5.448;2023-07-29T07:50:59;100761.16;;;20.20;71.72
81802;BME280;71199;52.490;5.448;2023-07-29T07:53:24;100757.22;;;20.51;71.42
81802;BME280;71199;52.490;5.448;2023-07-29T07:55:53;100760.28;;;20.97;69.62
81802;BME280;71199;52.490;5.448;2023-07-29T07:58:18;100759.28;;;21.03;68.76
81802;BME280;71199;52.490;5.448;2023-07-29T08:00:44;100763.41;;;21.12;69.01
81802;BME280;71199;52.490;5.448;2023-07-29T08:03:09;100766.31;;;21.05;68.35
81802;BME280;71199;52.490;5.448;2023-07-29T08:05:34;100771.78;;;21.12;68.56
81802;BME280;71199;52.490;5.448;2023-07-29T08:08:00;100766.91;;;21.19;69.47
81802;BME280;71199;52.490;5.448;2023-07-29T08:10:25;100776.16;;;21.20;68.66
81802;BME280;71199;52.490;5.448;2023-07-29T08:12:51;100776.00;;;21.14;68.86
81802;BME280;71199;52.490;5.448;2023-07-29T08:15:16;100764.59;;;21.16;68.07
81802;BME280;71199;52.490;5.448;2023-07-29T08:17:41;100767.09;;;21.41;67.58
81802;BME280;71199;52.490;5.448;2023-07-29T08:20:07;100749.44;;;21.64;66.91
81802;BME280;71199;52.490;5.448;2023-07-29T08:22:32;100760.03;;;21.91;66.45
81802;BME280;71199;52.490;5.448;2023-07-29T08:24:58;100760.34;;;21.94;66.32
81802;BME280;71199;52.490;5.448;2023-07-29T08:27:23;100762.91;;;21.96;65.94
81802;BME280;71199;52.490;5.448;2023-07-29T08:29:48;100759.09;;;22.02;65.87
81802;BME280;71199;52.490;5.448;2023-07-29T08:32:14;100759.38;;;22.18;64.88
81802;BME280;71199;52.490;5.448;2023-07-29T08:34:39;100760.41;;;22.11;64.76
81802;BME280;71199;52.490;5.448;2023-07-29T08:37:05;100761.13;;;22.07;64.48
81802;BME280;71199;52.490;5.448;2023-07-29T08:39:30;100758.34;;;21.78;65.99
81802;BME280;71199;52.490;5.448;2023-07-29T08:42:03;100765.19;;;21.30;69.08
81802;BME280;71199;52.490;5.448;2023-07-29T08:44:35;100770.31;;;20.39;73.30
81802;BME280;71199;52.490;5.448;2023-07-29T08:47:01;100765.06;;;19.58;77.04
81802;BME280;71199;52.490;5.448;2023-07-29T08:49:27;100774.13;;;19.17;78.59
81802;BME280;71199;52.490;5.448;2023-07-29T08:51:54;100776.88;;;19.05;79.58
81802;BME280;71199;52.490;5.448;2023-07-29T08:54:21;100768.97;;;19.20;79.79
81802;BME280;71199;52.490;5.448;2023-07-29T08:56:46;100771.94;;;19.56;79.30
81802;BME280;71199;52.490;5.448;2023-07-29T08:59:13;100775.38;;;19.88;77.86
81802;BME280;71199;52.490;5.448;2023-07-29T09:01:38;100782.75;;;20.12;75.44
81802;BME280;71199;52.490;5.448;2023-07-29T09:04:04;100778.31;;;20.35;74.47
81802;BME280;71199;52.490;5.448;2023-07-29T09:06:31;100783.28;;;20.57;73.84
81802;BME280;71199;52.490;5.448;2023-07-29T09:08:58;100783.28;;;20.57;72.54
81802;BME280;71199;52.490;5.448;2023-07-29T09:11:24;100776.38;;;20.47;72.11
81802;BME280;71199;52.490;5.448;2023-07-29T09:13:49;100780.78;;;20.79;72.42
81802;BME280;71199;52.490;5.448;2023-07-29T09:16:15;100779.19;;;21.06;70.04
81802;BME280;71199;52.490;5.448;2023-07-29T09:18:40;100777.38;;;21.12;69.46
81802;BME280;71199;52.490;5.448;2023-07-29T09:21:06;100767.63;;;21.26;69.98
81802;BME280;71199;52.490;5.448;2023-07-29T09:23:41;100768.81;;;21.83;67.06
81802;BME280;71199;52.490;5.448;2023-07-29T09:26:07;100777.91;;;22.36;64.98
81802;BME280;71199;52.490;5.448;2023-07-29T09:28:38;100769.91;;;22.44;64.48
81802;BME280;71199;52.490;5.448;2023-07-29T09:31:04;100781.25;;;22.21;63.79
81802;BME280;71199;52.490;5.448;2023-07-29T09:33:33;100780.81;;;22.41;64.15
81802;BME280;71199;52.490;5.448;2023-07-29T09:36:00;100785.09;;;22.31;60.76
81802;BME280;71199;52.490;5.448;2023-07-29T09:38:27;100784.56;;;22.18;60.54
81802;BME280;71199;52.490;5.448;2023-07-29T09:40:55;100782.25;;;22.14;61.32
81802;BME280;71199;52.490;5.448;2023-07-29T09:43:25;100785.31;;;22.13;61.40
81802;BME280;71199;52.490;5.448;2023-07-29T09:45:52;100787.19;;;22.07;63.00
81802;BME280;71199;52.490;5.448;2023-07-29T09:48:22;100788.84;;;21.91;62.24
81802;BME280;71199;52.490;5.448;2023-07-29T09:50:48;100780.66;;;21.73;62.10
81802;BME280;71199;52.490;5.448;2023-07-29T09:53:14;100793.47;;;21.57;62.71
81802;BME280;71199;52.490;5.448;2023-07-29T09:55:39;100798.72;;;21.42;63.90
81802;BME280;71199;52.490;5.448;2023-07-29T09:58:06;100798.75;;;21.18;65.17
81802;BME280;71199;52.490;5.448;2023-07-29T10:00:33;100796.97;;;21.00;65.25
81802;BME280;71199;52.490;5.448;2023-07-29T10:02:59;100795.50;;;20.86;65.54
81802;BME280;71199;52.490;5.448;2023-07-29T10:05:28;100796.44;;;21.15;65.19
81802;BME280;71199;52.490;5.448;2023-07-29T10:07:55;100798.44;;;21.55;64.17
81802;BME280;71199;52.490;5.448;2023-07-29T10:10:20;100801.03;;;21.85;63.49
81802;BME280;71199;52.490;5.448;2023-07-29T10:12:46;100790.72;;;22.03;63.00
81802;BME280;71199;52.490;5.448;2023-07-29T10:15:12;100798.81;;;22.16;63.28
81802;BME280;71199;52.490;5.448;2023-07-29T10:17:39;100794.50;;;22.25;61.93
81802;BME280;71199;52.490;5.448;2023-07-29T10:20:06;100791.31;;;22.33;62.11
81802;BME280;71199;52.490;5.448;2023-07-29T10:22:42;100792.34;;;22.61;61.75
81802;BME280;71199;52.490;5.448;2023-07-29T10:25:21;100786.47;;;22.80;60.64
81802;BME280;71199;52.490;5.448;2023-07-29T10:27:52;100779.66;;;22.92;58.34
81802;BME280;71199;52.490;5.448;2023-07-29T10:30:18;100793.09;;;22.73;58.56
81802;BME280;71199;52.490;5.448;2023-07-29T10:32:45;100789.97;;;22.70;59.73
81802;BME280;71199;52.490;5.448;2023-07-29T10:35:11;100791.63;;;22.71;59.73
81802;BME280;71199;52.490;5.448;2023-07-29T10:37:37;100792.22;;;22.73;60.16
81802;BME280;71199;52.490;5.448;2023-07-29T10:40:06;100792.41;;;22.83;60.23
81802;BME280;71199;52.490;5.448;2023-07-29T10:42:32;100798.09;;;22.88;59.50
81802;BME280;71199;52.490;5.448;2023-07-29T10:44:57;100787.13;;;22.87;59.98
81802;BME280;71199;52.490;5.448;2023-07-29T10:47:27;100793.56;;;22.87;59.71
81802;BME280;71199;52.490;5.448;2023-07-29T10:49:56;100793.25;;;22.84;59.66
81802;BME280;71199;52.490;5.448;2023-07-29T10:54:59;100785.00;;;22.77;59.55
81802;BME280;71199;52.490;5.448;2023-07-29T10:57:36;100780.28;;;22.78;59.33
81802;BME280;71199;52.490;5.448;2023-07-29T11:00:03;100780.44;;;22.71;59.86
81802;BME280;71199;52.490;5.448;2023-07-29T11:02:35;100785.44;;;22.86;59.21
81802;BME280;71199;52.490;5.448;2023-07-29T11:05:05;100774.81;;;23.05;59.68
81802;BME280;71199;52.490;5.448;2023-07-29T11:07:31;100787.38;;;23.19;59.35
81802;BME280;71199;52.490;5.448;2023-07-29T11:10:08;100791.94;;;23.25;58.94
81802;BME280;71199;52.490;5.448;2023-07-29T11:12:49;100797.41;;;23.15;58.33
81802;BME280;71199;52.490;5.448;2023-07-29T11:15:24;100792.84;;;22.92;58.12
81802;BME280;71199;52.490;5.448;2023-07-29T11:20:23;100784.50;;;22.80;58.63
81802;BME280;71199;52.490;5.448;2023-07-29T11:22:49;100791.47;;;22.94;58.91
81802;BME280;71199;52.490;5.448;2023-07-29T11:25:17;100791.69;;;23.10;59.47
81802;BME280;71199;52.490;5.448;2023-07-29T11:27:43;100801.84;;;23.33;57.65
81802;BME280;71199;52.490;5.448;2023-07-29T11:30:11;100804.81;;;23.43;56.88
81802;BME280;71199;52.490;5.448;2023-07-29T11:32:38;100809.03;;;23.46;55.15
81802;BME280;71199;52.490;5.448;2023-07-29T11:35:04;100803.94;;;23.43;55.39
81802;BME280;71199;52.490;5.448;2023-07-29T11:37:30;100797.16;;;23.39;55.41
81802;BME280;71199;52.490;5.448;2023-07-29T11:39:55;100797.56;;;23.47;56.43
81802;BME280;71199;52.490;5.448;2023-07-29T11:42:21;100793.63;;;23.48;55.84
81802;BME280;71199;52.490;5.448;2023-07-29T11:44:46;100784.59;;;23.41;56.62
81802;BME280;71199;52.490;5.448;2023-07-29T11:47:12;100790.56;;;23.28;56.86
81802;BME280;71199;52.490;5.448;2023-07-29T11:49:39;100785.84;;;23.11;57.57
81802;BME280;71199;52.490;5.448;2023-07-29T11:52:09;100794.16;;;22.89;57.53
81802;BME280;71199;52.490;5.448;2023-07-29T11:54:36;100800.72;;;22.95;58.09
81802;BME280;71199;52.490;5.448;2023-07-29T11:57:04;100798.84;;;23.01;58.33
81802;BME280;71199;52.490;5.448;2023-07-29T11:59:32;100800.53;;;23.41;57.25
81802;BME280;71199;52.490;5.448;2023-07-29T12:01:59;100802.13;;;23.53;57.16
81802;BME280;71199;52.490;5.448;2023-07-29T12:04:25;100788.94;;;23.54;58.60
81802;BME280;71199;52.490;5.448;2023-07-29T12:06:51;100796.19;;;23.50;57.31
81802;BME280;71199;52.490;5.448;2023-07-29T12:09:16;100795.25;;;23.66;57.14
81802;BME280;71199;52.490;5.448;2023-07-29T12:11:42;100801.31;;;23.80;55.37
81802;BME280;71199;52.490;5.448;2023-07-29T12:14:08;100795.25;;;23.88;55.38
81802;BME280;71199;52.490;5.448;2023-07-29T12:16:43;100803.53;;;24.00;53.66
81802;BME280;71199;52.490;5.448;2023-07-29T12:19:12;100795.78;;;24.12;53.96
81802;BME280;71199;52.490;5.448;2023-07-29T12:21:38;100801.88;;;24.04;54.11
81802;BME280;71199;52.490;5.448;2023-07-29T12:24:03;100793.56;;;23.87;55.34
81802;BME280;71199;52.490;5.448;2023-07-29T12:26:29;100800.88;;;23.66;56.02
81802;BME280;71199;52.490;5.448;2023-07-29T12:28:55;100791.22;;;23.57;56.32
81802;BME280;71199;52.490;5.448;2023-07-29T12:31:22;100795.25;;;23.44;56.32
81802;BME280;71199;52.490;5.448;2023-07-29T12:33:56;100804.78;;;23.21;56.58
81802;BME280;71199;52.490;5.448;2023-07-29T12:36:21;100798.09;;;22.88;57.43
81802;BME280;71199;52.490;5.448;2023-07-29T12:38:47;100797.94;;;22.78;58.45
81802;BME280;71199;52.490;5.448;2023-07-29T12:41:12;100799.44;;;22.69;59.96
81802;BME280;71199;52.490;5.448;2023-07-29T12:43:37;100807.94;;;22.40;63.81
81802;BME280;71199;52.490;5.448;2023-07-29T12:46:03;100798.13;;;21.80;65.93
81802;BME280;71199;52.490;5.448;2023-07-29T12:48:28;100807.94;;;21.30;68.09
81802;BME280;71199;52.490;5.448;2023-07-29T12:50:53;100813.47;;;20.78;71.39
81802;BME280;71199;52.490;5.448;2023-07-29T12:53:19;100812.66;;;20.47;73.88
81802;BME280;71199;52.490;5.448;2023-07-29T12:55:44;100818.91;;;20.19;76.30
81802;BME280;71199;52.490;5.448;2023-07-29T12:58:09;100803.50;;;19.86;77.97